createdAt,value
2023-01-19T00:00:45.695Z,6.40
2023-01-19T00:03:31.298Z,6.20
2023-01-19T00:06:17.914Z,6.20
2023-01-19T00:09:04.189Z,6.10
2023-01-19T00:11:50.028Z,6.40
2023-01-19T00:14:35.675Z,6.50
2023-01-19T00:17:21.158Z,6.70
2023-01-19T00:20:08.001Z,6.70
2023-01-19T00:22:53.553Z,6.70
2023-01-19T00:25:43.719Z,6.70
2023-01-19T00:28:29.507Z,6.60
2023-01-19T00:31:15.269Z,6.70
2023-01-19T00:34:00.589Z,6.60
2023-01-19T00:36:46.106Z,6.70
2023-01-19T00:39:31.677Z,6.60
2023-01-19T00:42:35.451Z,6.60
2023-01-19T00:45:24.154Z,6.60
2023-01-19T00:48:09.668Z,6.40
2023-01-19T00:50:55.129Z,6.10
2023-01-19T00:53:40.548Z,6.10
2023-01-19T00:56:27.233Z,6.20
2023-01-19T00:59:13.256Z,6.10
2023-01-19T01:01:59.130Z,5.90
2023-01-19T01:04:44.476Z,6.10
2023-01-19T01:07:30.880Z,6.30
2023-01-19T01:10:18.416Z,6.10
2023-01-19T01:13:22.551Z,6.10
2023-01-19T01:16:09.958Z,6.20
2023-01-19T01:18:55.376Z,6.30
2023-01-19T01:21:41.414Z,5.80
2023-01-19T01:24:26.910Z,5.60
2023-01-19T01:27:12.493Z,5.40
2023-01-19T01:29:58.194Z,5.20
2023-01-19T01:32:43.860Z,5.10
2023-01-19T01:35:29.623Z,5.20
2023-01-19T01:38:15.670Z,5.20
2023-01-19T01:41:01.624Z,5.30
2023-01-19T01:43:51.663Z,5.50
2023-01-19T01:46:37.050Z,5.60
2023-01-19T01:49:22.946Z,5.30
2023-01-19T01:52:08.647Z,5.60
2023-01-19T01:54:54.348Z,5.60
2023-01-19T01:57:46.586Z,5.60
2023-01-19T02:00:52.714Z,5.00
2023-01-19T02:03:38.374Z,5.30
2023-01-19T02:06:24.240Z,5.40
2023-01-19T02:09:30.044Z,5.20
2023-01-19T02:12:34.608Z,5.30
2023-01-19T02:15:20.725Z,5.30
2023-01-19T02:18:06.676Z,5.40
2023-01-19T02:21:22.220Z,5.60
2023-01-19T02:24:09.060Z,5.60
2023-01-19T02:26:56.259Z,5.50
2023-01-19T02:29:42.153Z,5.30
2023-01-19T02:32:28.178Z,5.40
2023-01-19T02:35:13.809Z,5.30
2023-01-19T02:38:01.449Z,5.40
2023-01-19T02:40:48.704Z,5.20
2023-01-19T02:43:36.262Z,5.50
2023-01-19T02:46:22.134Z,5.00
2023-01-19T02:49:08.046Z,5.00
2023-01-19T02:51:53.672Z,5.10
2023-01-19T02:55:12.739Z,5.20
2023-01-19T02:58:17.029Z,5.40
2023-01-19T03:01:33.817Z,5.20
2023-01-19T03:04:49.004Z,5.00
2023-01-19T03:07:52.660Z,4.80
2023-01-19T03:11:05.005Z,4.90
2023-01-19T03:14:00.946Z,4.70
2023-01-19T03:17:08.048Z,4.80
2023-01-19T03:19:54.333Z,4.60
2023-01-19T03:22:39.882Z,4.30
2023-01-19T03:25:27.320Z,4.80
2023-01-19T03:28:14.951Z,4.50
2023-01-19T03:31:21.308Z,4.30
2023-01-19T03:34:09.417Z,4.30
2023-01-19T03:37:01.924Z,4.40
2023-01-19T03:39:47.964Z,4.90
2023-01-19T03:42:34.231Z,4.60
2023-01-19T03:45:21.807Z,4.50
2023-01-19T03:48:08.099Z,4.60
2023-01-19T03:50:55.354Z,4.70
2023-01-19T03:53:42.100Z,4.50
2023-01-19T03:56:27.509Z,4.60
2023-01-19T03:59:13.024Z,4.60
2023-01-19T04:01:58.523Z,4.50
2023-01-19T04:04:44.359Z,4.50
2023-01-19T04:07:29.720Z,4.40
2023-01-19T04:10:19.580Z,4.80
2023-01-19T04:13:05.662Z,4.10
2023-01-19T04:15:51.515Z,4.10
2023-01-19T04:18:37.262Z,4.20
2023-01-19T04:21:22.947Z,4.20
2023-01-19T04:24:10.320Z,4.20
2023-01-19T04:26:57.404Z,4.20
2023-01-19T04:29:43.262Z,4.20
2023-01-19T04:32:29.105Z,4.50
2023-01-19T04:35:15.241Z,4.30
2023-01-19T04:38:01.005Z,4.40
2023-01-19T04:40:48.644Z,4.10
2023-01-19T04:43:34.231Z,4.20
2023-01-19T04:46:19.677Z,4.20
2023-01-19T04:49:05.310Z,4.10
2023-01-19T04:51:53.831Z,4.00
2023-01-19T04:54:39.281Z,3.90
2023-01-19T04:57:25.164Z,3.90
2023-01-19T05:00:11.400Z,3.80
2023-01-19T05:02:57.664Z,4.00
2023-01-19T05:05:43.722Z,4.00
2023-01-19T05:08:29.537Z,4.00
2023-01-19T05:11:15.125Z,4.10
2023-01-19T05:14:00.654Z,4.20
2023-01-19T05:16:46.141Z,4.20
2023-01-19T05:19:31.882Z,3.90
2023-01-19T05:22:17.685Z,4.10
2023-01-19T05:25:03.820Z,4.10
2023-01-19T05:27:49.537Z,4.10
2023-01-19T05:30:35.186Z,3.90
2023-01-19T05:33:22.184Z,4.30
2023-01-19T05:36:09.292Z,4.10
2023-01-19T05:38:54.951Z,4.00
2023-01-19T05:41:42.134Z,4.00
2023-01-19T05:44:28.312Z,4.00
2023-01-19T05:47:14.114Z,4.10
2023-01-19T05:49:59.747Z,4.10
2023-01-19T05:52:45.077Z,4.40
2023-01-19T05:55:32.307Z,4.40
2023-01-19T05:58:17.920Z,4.30
2023-01-19T06:01:08.494Z,4.30
2023-01-19T06:03:54.358Z,4.10
2023-01-19T06:06:40.337Z,4.30
2023-01-19T06:09:26.412Z,4.10
2023-01-19T06:12:12.067Z,4.20
2023-01-19T06:14:58.890Z,4.20
2023-01-19T06:17:44.327Z,4.10
2023-01-19T06:20:31.262Z,4.00
2023-01-19T06:23:16.937Z,4.00
2023-01-19T06:26:02.696Z,4.30
2023-01-19T06:28:50.694Z,4.20
2023-01-19T06:31:36.334Z,4.30
2023-01-19T06:34:22.347Z,4.20
2023-01-19T06:37:07.703Z,4.20
2023-01-19T06:39:53.313Z,4.20
2023-01-19T06:42:39.121Z,4.10
2023-01-19T06:45:24.801Z,4.30
2023-01-19T06:48:14.563Z,4.10
2023-01-19T06:51:01.123Z,4.20
2023-01-19T06:53:46.562Z,4.40
2023-01-19T06:56:31.797Z,4.40
2023-01-19T06:59:17.255Z,4.70
2023-01-19T07:02:26.240Z,4.10
2023-01-19T07:05:09.596Z,4.00
2023-01-19T07:07:56.351Z,4.10
2023-01-19T07:11:26.649Z,4.40
2023-01-19T07:13:51.770Z,4.00
2023-01-19T07:16:37.796Z,4.20
2023-01-19T07:19:23.880Z,4.30
2023-01-19T07:22:11.094Z,4.20
2023-01-19T07:25:06.479Z,4.30
2023-01-19T07:27:52.325Z,4.30
2023-01-19T07:30:38.500Z,4.30
2023-01-19T07:33:26.395Z,4.50
2023-01-19T07:36:12.183Z,4.40
2023-01-19T07:38:57.582Z,4.40
2023-01-19T07:41:43.049Z,4.50
2023-01-19T07:44:28.792Z,4.50
2023-01-19T07:47:14.624Z,4.60
2023-01-19T07:50:00.168Z,4.80
2023-01-19T07:52:48.182Z,4.50
2023-01-19T07:55:34.109Z,4.50
2023-01-19T07:58:20.246Z,4.50
2023-01-19T08:01:09.667Z,4.60
2023-01-19T08:04:02.224Z,4.60
2023-01-19T08:06:47.983Z,4.60
2023-01-19T08:09:33.764Z,4.30
2023-01-19T08:12:19.327Z,4.30
2023-01-19T08:15:09.220Z,4.50
2023-01-19T08:18:00.611Z,4.40
2023-01-19T08:20:46.830Z,4.30
2023-01-19T08:23:32.895Z,4.50
2023-01-19T08:26:27.599Z,4.40
2023-01-19T08:29:13.812Z,3.70
2023-01-19T08:32:02.316Z,4.90
2023-01-19T08:34:47.954Z,4.60
2023-01-19T08:37:36.106Z,4.60
2023-01-19T08:40:22.002Z,6.20
2023-01-19T08:43:10.998Z,4.90
2023-01-19T08:45:59.044Z,4.60
2023-01-19T08:48:45.319Z,4.60
2023-01-19T08:51:31.120Z,4.60
2023-01-19T08:54:18.593Z,4.70
2023-01-19T08:57:04.526Z,4.70
2023-01-19T08:59:50.645Z,4.80
2023-01-19T09:02:36.741Z,4.70
2023-01-19T09:05:22.919Z,4.50
2023-01-19T09:08:11.694Z,4.50
2023-01-19T09:10:57.751Z,4.40
2023-01-19T09:13:43.889Z,4.80
2023-01-19T09:16:30.053Z,3.80
2023-01-19T09:19:15.460Z,5.40
2023-01-19T09:22:01.033Z,4.80
2023-01-19T09:24:47.704Z,4.90
2023-01-19T09:27:34.304Z,5.00
2023-01-19T09:30:20.332Z,4.80
2023-01-19T09:33:08.841Z,4.70
2023-01-19T09:35:55.466Z,4.80
2023-01-19T09:38:41.489Z,4.60
2023-01-19T09:41:28.506Z,4.60
2023-01-19T09:44:20.121Z,4.70
2023-01-19T09:47:15.331Z,4.80
2023-01-19T09:50:10.778Z,4.80
2023-01-19T09:53:05.287Z,4.80
2023-01-19T09:55:51.204Z,4.80
2023-01-19T09:58:36.933Z,4.50
2023-01-19T10:02:05.635Z,4.30
2023-01-19T10:05:01.548Z,4.60
2023-01-19T10:08:08.691Z,4.60
2023-01-19T10:10:57.762Z,4.50
2023-01-19T10:13:54.278Z,4.70
2023-01-19T10:16:45.550Z,4.20
2023-01-19T10:19:38.202Z,4.20
2023-01-19T10:22:26.864Z,4.30
2023-01-19T10:25:19.267Z,4.00
2023-01-19T10:28:04.955Z,3.40
2023-01-19T10:30:54.376Z,4.00
2023-01-19T10:33:40.252Z,4.10
2023-01-19T10:36:39.778Z,3.90
2023-01-19T10:39:25.807Z,4.00
2023-01-19T10:42:16.249Z,3.70
2023-01-19T10:45:02.007Z,3.80
2023-01-19T10:47:48.858Z,3.80
2023-01-19T10:50:39.988Z,3.80
2023-01-19T10:53:26.561Z,3.70
2023-01-19T10:56:23.185Z,3.90
2023-01-19T10:59:36.261Z,3.50
2023-01-19T11:02:29.785Z,3.40
2023-01-19T11:05:28.093Z,3.30
2023-01-19T11:08:29.460Z,3.20
2023-01-19T11:11:15.135Z,3.60
2023-01-19T11:14:11.079Z,3.70
2023-01-19T11:16:58.822Z,4.00
2023-01-19T11:19:55.108Z,3.90
2023-01-19T11:22:40.712Z,4.10
2023-01-19T11:25:32.116Z,4.10
2023-01-19T11:28:27.028Z,4.20
2023-01-19T11:31:15.944Z,4.20
2023-01-19T11:34:21.819Z,4.10
2023-01-19T11:37:28.296Z,4.30
2023-01-19T11:40:17.306Z,4.80
2023-01-19T11:43:03.914Z,4.10
2023-01-19T11:45:50.270Z,4.20
2023-01-19T11:49:03.562Z,4.20
2023-01-19T11:52:11.900Z,4.30
2023-01-19T11:55:17.621Z,4.00
2023-01-19T11:58:04.757Z,4.20
2023-01-19T12:01:24.650Z,4.10
2023-01-19T12:04:15.173Z,4.00
2023-01-19T12:07:07.644Z,4.00
2023-01-19T12:10:02.540Z,3.20
2023-01-19T12:12:49.256Z,4.20
2023-01-19T12:15:44.902Z,4.30
2023-01-19T12:18:39.800Z,4.10
2023-01-19T12:21:25.736Z,4.30
2023-01-19T12:24:16.870Z,4.40
2023-01-19T12:27:27.772Z,4.40
2023-01-19T12:30:28.023Z,4.30
2023-01-19T12:33:33.277Z,4.30
2023-01-19T12:36:36.479Z,4.00
2023-01-19T12:39:23.545Z,4.30
2023-01-19T12:42:18.506Z,4.30
2023-01-19T12:45:13.818Z,4.40
2023-01-19T12:47:59.871Z,4.30
2023-01-19T12:50:48.847Z,4.30
2023-01-19T12:53:34.252Z,4.40
2023-01-19T12:56:20.789Z,4.20
2023-01-19T12:59:06.673Z,4.20
2023-01-19T13:02:27.973Z,4.40
2023-01-19T13:05:39.767Z,4.60
2023-01-19T13:08:58.107Z,4.10
2023-01-19T13:12:22.370Z,4.30
2023-01-19T13:15:33.991Z,4.20
2023-01-19T13:18:29.580Z,4.30
2023-01-19T13:21:29.181Z,4.20
2023-01-19T13:24:17.862Z,4.20
2023-01-19T13:27:07.088Z,4.20
2023-01-19T13:29:52.755Z,4.30
2023-01-19T13:32:42.221Z,4.80
2023-01-19T13:35:28.449Z,4.50
2023-01-19T13:38:14.983Z,4.20
2023-01-19T13:41:02.909Z,4.10
2023-01-19T13:43:59.296Z,4.10
2023-01-19T13:46:46.859Z,4.30
2023-01-19T13:49:44.846Z,4.50
2023-01-19T13:52:31.301Z,4.00
2023-01-19T13:55:16.937Z,4.20
2023-01-19T13:58:02.758Z,4.10
2023-01-19T14:00:48.464Z,4.10
2023-01-19T14:03:34.232Z,3.90
2023-01-19T14:06:34.796Z,4.00
2023-01-19T14:09:20.792Z,4.10
2023-01-19T14:12:16.397Z,4.40
2023-01-19T14:15:02.030Z,4.10
2023-01-19T14:18:09.523Z,4.90
2023-01-19T14:21:08.332Z,4.20
2023-01-19T14:24:16.953Z,4.10
2023-01-19T14:27:24.361Z,4.70
2023-01-19T14:30:22.325Z,4.20
2023-01-19T14:33:41.797Z,4.20
2023-01-19T14:36:39.724Z,4.10
2023-01-19T14:39:28.482Z,4.90
2023-01-19T14:42:24.801Z,4.40
2023-01-19T14:45:18.445Z,4.50
2023-01-19T14:48:16.332Z,4.50
2023-01-19T14:51:05.268Z,4.30
2023-01-19T14:53:54.102Z,4.10
2023-01-19T14:56:40.301Z,4.20
2023-01-19T14:59:26.037Z,4.20
2023-01-19T15:02:11.875Z,4.20
2023-01-19T15:04:57.879Z,4.10
2023-01-19T15:07:45.743Z,4.10
2023-01-19T15:10:31.744Z,4.00
2023-01-19T15:13:22.786Z,4.00
2023-01-19T15:16:11.582Z,4.20
2023-01-19T15:18:57.365Z,4.00
2023-01-19T15:21:45.295Z,4.10
2023-01-19T15:24:31.211Z,4.00
2023-01-19T15:27:17.328Z,3.90
2023-01-19T15:30:02.992Z,4.00
2023-01-19T15:32:49.641Z,4.20
2023-01-19T15:35:35.149Z,4.20
2023-01-19T15:38:20.798Z,4.70
2023-01-19T15:41:23.830Z,3.80
2023-01-19T15:44:11.138Z,3.90
2023-01-19T15:46:57.505Z,3.80
2023-01-19T15:49:43.172Z,3.80
2023-01-19T15:52:28.793Z,4.20
2023-01-19T15:55:16.080Z,3.80
2023-01-19T15:58:01.718Z,4.00
2023-01-19T16:00:54.956Z,3.80
2023-01-19T16:03:41.429Z,4.10
2023-01-19T16:06:29.537Z,4.30
2023-01-19T16:09:18.604Z,4.30
2023-01-19T16:12:04.818Z,4.20
2023-01-19T16:14:50.291Z,3.80
2023-01-19T16:17:36.926Z,3.70
2023-01-19T16:20:22.420Z,3.40
2023-01-19T16:23:15.779Z,3.80
2023-01-19T16:26:07.678Z,3.60
2023-01-19T16:28:55.772Z,4.00
2023-01-19T16:31:43.138Z,4.30
2023-01-19T16:34:28.973Z,4.50
2023-01-19T16:37:14.417Z,4.40
2023-01-19T16:39:59.881Z,4.40
2023-01-19T16:42:47.372Z,4.50
2023-01-19T16:45:33.046Z,4.50
2023-01-19T16:48:20.549Z,4.60
2023-01-19T16:51:06.616Z,4.60
2023-01-19T16:53:52.507Z,4.50
2023-01-19T16:56:38.447Z,4.30
2023-01-19T16:59:25.015Z,4.40
2023-01-19T17:02:11.495Z,4.50
2023-01-19T17:05:00.204Z,4.40
2023-01-19T17:07:46.014Z,4.20
2023-01-19T17:10:31.960Z,3.90
2023-01-19T17:13:17.210Z,4.80
2023-01-19T17:16:03.911Z,3.90
2023-01-19T17:18:49.920Z,4.10
2023-01-19T17:21:36.013Z,4.40
2023-01-19T17:24:21.614Z,4.40
2023-01-19T17:27:07.525Z,4.50
2023-01-19T17:29:53.230Z,4.50
2023-01-19T17:32:39.018Z,4.40
2023-01-19T17:35:25.156Z,3.90
2023-01-19T17:38:11.388Z,3.90
2023-01-19T17:40:58.204Z,4.10
2023-01-19T17:43:46.445Z,4.20
2023-01-19T17:46:35.182Z,4.50
2023-01-19T17:49:20.413Z,4.50
2023-01-19T17:52:05.929Z,4.40
2023-01-19T17:54:51.392Z,4.50
2023-01-19T17:57:37.957Z,4.50
2023-01-19T18:00:24.141Z,5.10
2023-01-19T18:03:09.755Z,4.60
2023-01-19T18:05:56.324Z,4.50
2023-01-19T18:08:44.875Z,4.40
2023-01-19T18:11:30.665Z,4.40
2023-01-19T18:14:16.590Z,4.50
2023-01-19T18:17:04.165Z,4.10
2023-01-19T18:19:49.540Z,4.20
2023-01-19T18:22:35.029Z,4.20
2023-01-19T18:25:20.456Z,3.80
2023-01-19T18:28:07.191Z,4.00
2023-01-19T18:30:53.214Z,4.60
2023-01-19T18:33:39.943Z,3.40
2023-01-19T18:36:26.041Z,4.00
2023-01-19T18:39:11.876Z,4.20
2023-01-19T18:41:57.848Z,4.00
2023-01-19T18:44:43.680Z,3.90
2023-01-19T18:47:29.529Z,3.60
2023-01-19T18:50:17.812Z,3.80
2023-01-19T18:53:03.751Z,3.80
2023-01-19T18:55:54.470Z,3.90
2023-01-19T18:58:40.086Z,4.80
2023-01-19T19:01:33.028Z,4.40
2023-01-19T19:04:19.061Z,4.50
2023-01-19T19:07:04.904Z,4.40
2023-01-19T19:09:50.358Z,4.40
2023-01-19T19:12:35.933Z,4.60
2023-01-19T19:15:21.668Z,4.50
2023-01-19T19:18:08.987Z,4.70
2023-01-19T19:21:14.891Z,4.60
2023-01-19T19:24:01.012Z,4.40
2023-01-19T19:26:49.277Z,4.30
2023-01-19T19:29:35.205Z,4.40
2023-01-19T19:32:21.528Z,4.70
2023-01-19T19:35:07.548Z,4.60
2023-01-19T19:38:07.339Z,4.60
2023-01-19T19:40:57.380Z,4.80
2023-01-19T19:43:43.165Z,4.80
2023-01-19T19:46:29.288Z,4.80
2023-01-19T19:49:17.801Z,4.90
2023-01-19T19:52:03.572Z,4.80
2023-01-19T19:54:49.248Z,4.90
2023-01-19T19:57:35.268Z,4.00
2023-01-19T20:00:20.997Z,4.70
2023-01-19T20:03:13.400Z,4.40
2023-01-19T20:06:21.397Z,4.40
2023-01-19T20:09:17.205Z,4.70
2023-01-19T20:12:09.711Z,4.80
2023-01-19T20:14:54.937Z,4.90
2023-01-19T20:17:43.205Z,4.90
2023-01-19T20:20:28.772Z,4.40
2023-01-19T20:23:14.460Z,4.60
2023-01-19T20:26:04.983Z,5.10
2023-01-19T20:28:51.222Z,4.70
2023-01-19T20:31:44.417Z,4.80
2023-01-19T20:34:33.299Z,4.80
2023-01-19T20:37:19.650Z,4.40
2023-01-19T20:40:05.718Z,4.80
2023-01-19T20:42:51.354Z,5.10
2023-01-19T20:45:37.136Z,4.90
2023-01-19T20:48:22.866Z,5.40
2023-01-19T20:51:18.894Z,5.70
2023-01-19T20:54:04.788Z,5.00
2023-01-19T20:56:50.222Z,5.00
2023-01-19T20:59:38.115Z,5.00
2023-01-19T21:02:23.605Z,4.90
2023-01-19T21:05:09.779Z,4.80
2023-01-19T21:07:55.842Z,4.90
2023-01-19T21:10:42.137Z,4.10
2023-01-19T21:13:28.250Z,3.70
2023-01-19T21:16:14.847Z,4.10
2023-01-19T21:19:00.455Z,4.10
2023-01-19T21:21:46.168Z,4.40
2023-01-19T21:24:31.859Z,4.40
2023-01-19T21:27:17.947Z,4.70
2023-01-19T21:30:03.701Z,3.60
2023-01-19T21:32:49.198Z,4.70
2023-01-19T21:35:34.987Z,4.70
2023-01-19T21:38:22.124Z,4.60
2023-01-19T21:41:09.824Z,4.50
2023-01-19T21:43:55.298Z,4.60
2023-01-19T21:46:41.462Z,4.70
2023-01-19T21:49:27.159Z,5.00
2023-01-19T21:52:12.705Z,4.80
2023-01-19T21:54:58.353Z,4.50
2023-01-19T21:57:43.956Z,4.80
2023-01-19T22:00:30.301Z,4.10
2023-01-19T22:03:16.685Z,4.20
2023-01-19T22:06:07.433Z,4.40
2023-01-19T22:08:54.090Z,4.20
2023-01-19T22:11:40.009Z,4.30
2023-01-19T22:14:25.857Z,4.60
2023-01-19T22:17:11.286Z,4.60
2023-01-19T22:19:56.591Z,4.90
2023-01-19T22:22:44.364Z,5.00
2023-01-19T22:25:32.130Z,5.00
2023-01-19T22:28:18.070Z,5.10
2023-01-19T22:31:06.834Z,5.20
2023-01-19T22:33:53.524Z,5.00
2023-01-19T22:36:39.453Z,4.90
2023-01-19T22:39:25.252Z,4.90
2023-01-19T22:42:10.869Z,4.90
2023-01-19T22:44:56.284Z,5.00
2023-01-19T22:47:42.103Z,4.90
2023-01-19T22:50:27.748Z,4.80
2023-01-19T22:53:13.199Z,5.00
2023-01-19T22:55:58.875Z,4.60
2023-01-19T22:58:47.894Z,4.20
2023-01-19T23:01:39.834Z,4.70
2023-01-19T23:04:25.490Z,4.80
2023-01-19T23:07:10.943Z,4.80
2023-01-19T23:09:56.699Z,5.00
2023-01-19T23:12:41.994Z,5.20
2023-01-19T23:15:27.662Z,6.30
2023-01-19T23:18:13.680Z,5.20
2023-01-19T23:21:06.452Z,4.90
2023-01-19T23:23:56.928Z,4.60
2023-01-19T23:26:42.914Z,4.40
2023-01-19T23:29:28.403Z,4.10
2023-01-19T23:32:14.213Z,4.30
2023-01-19T23:34:59.508Z,4.70
2023-01-19T23:37:44.996Z,4.90
2023-01-19T23:40:30.365Z,5.00
2023-01-19T23:43:16.047Z,5.00
2023-01-19T23:46:06.254Z,5.40
2023-01-19T23:48:52.219Z,4.80
2023-01-19T23:51:39.609Z,4.60
2023-01-19T23:54:25.433Z,4.20
2023-01-19T23:57:11.276Z,4.40
2023-01-19T23:59:57.260Z,4.60
